WXForecasting.com
Aberdeen, SD - Weather Station Data
Daily Summary for May 19, 2017 Units:  Metric    English   Both
« Previous Day
Next Day »
Daily Weekly Monthly Yearly Custom
  High: Low: Average:
Temperature: 15.4 °C 7.5 °C 11.3 °C
Dew Point: 5.6 °C -0.6 °C 1.9 °C
Humidity: 63 % 39 % 54 %
Wind Speed: 22.5 km/h 0 km/h 5.8 km/h
Wind Gust: 27.4 km/h - -
Wind:- - ENE
Pressure: 1024.3 hPa 1021.9 hPa -
Precipitation: 0 mm    
Historical Graphs
 
 
Tabular Data for May 19, 2017
Time Temperature Dew Point Pressure Wind Wind Speed Wind Gust Humidity Rainfall Rate (Hourly) solar Conditions
00:11 9.8 °C 1.7 °C 1021.9 hPa North 4.8 km/h 9.7 km/h 57 % 0 mm 0 W/m2
00:26 9.6 °C 1.7 °C 1022.6 hPa Calm   8 km/h 58 % 0 mm 0 W/m2
00:41 9.4 °C 1.7 °C 1022.6 hPa NNE 4.8 km/h 8 km/h 59 % 0 mm 0 W/m2
00:56 9.3 °C 1.7 °C 1022.6 hPa NE 4.8 km/h 9.7 km/h 59 % 0 mm 0 W/m2
01:11 9.1 °C 1.7 °C 1022.6 hPa NNE 3.2 km/h 9.7 km/h 60 % 0 mm 0 W/m2
01:26 8.8 °C 1.1 °C 1022.6 hPa Calm   8 km/h 60 % 0 mm 0 W/m2
01:41 8.7 °C 1.1 °C 1022.6 hPa NNE 1.6 km/h 9.7 km/h 60 % 0 mm 0 W/m2
01:56 8.6 °C 1.1 °C 1022.6 hPa NNE 8 km/h 12.9 km/h 60 % 0 mm 0 W/m2
02:11 8.5 °C 0.6 °C 1021.9 hPa NNE 8 km/h 9.7 km/h 59 % 0 mm 0 W/m2
02:27 8.6 °C 0.6 °C 1021.9 hPa NNE 8 km/h 14.5 km/h 58 % 0 mm 0 W/m2
02:42 8.8 °C 0 °C 1021.9 hPa North 4.8 km/h 12.9 km/h 55 % 0 mm 0 W/m2
02:57 8.8 °C 0 °C 1022.2 hPa NNE 6.4 km/h 8 km/h 55 % 0 mm 0 W/m2
03:12 8.7 °C 0 °C 1022.2 hPa NNE 3.2 km/h 12.9 km/h 56 % 0 mm 0 W/m2
03:27 8.6 °C 0 °C 1022.2 hPa NE 1.6 km/h 9.7 km/h 56 % 0 mm 0 W/m2
03:42 8.6 °C 0.6 °C 1022.6 hPa NE 4.8 km/h 9.7 km/h 57 % 0 mm 0 W/m2
03:57 8.5 °C 0.6 °C 1022.6 hPa NE 3.2 km/h 9.7 km/h 57 % 0 mm 0 W/m2
04:12 8.4 °C 0.6 °C 1022.9 hPa NNE 4.8 km/h 9.7 km/h 58 % 0 mm 0 W/m2
04:27 8.3 °C 0.6 °C 1022.9 hPa NNE 8 km/h 9.7 km/h 59 % 0 mm 0 W/m2
04:42 8.3 °C 0.6 °C 1022.9 hPa NE 4.8 km/h 8 km/h 59 % 0 mm 0 W/m2
04:57 8.3 °C 0.6 °C 1022.9 hPa NE 3.2 km/h 14.5 km/h 59 % 0 mm 0 W/m2
05:12 8.2 °C 0.6 °C 1022.9 hPa NE 11.3 km/h 14.5 km/h 60 % 0 mm 0 W/m2
05:27 8.1 °C 1.1 °C 1022.9 hPa NE 8 km/h 17.7 km/h 61 % 0 mm 0 W/m2
05:42 8 °C 0.6 °C 1023.2 hPa NNE 6.4 km/h 12.9 km/h 61 % 0 mm 0 W/m2
05:57 7.9 °C 1.1 °C 1023.2 hPa NNE 4.8 km/h 9.7 km/h 62 % 0 mm 0 W/m2
06:12 7.7 °C 0.6 °C 1023.2 hPa NNE 6.4 km/h 9.7 km/h 62 % 0 mm 5 W/m2
06:27 7.7 °C 1.1 °C 1023.2 hPa NNE 3.2 km/h 8 km/h 63 % 0 mm 11 W/m2
06:42 7.5 °C 0.6 °C 1023.2 hPa North 3.2 km/h 12.9 km/h 63 % 0 mm 18 W/m2
06:57 7.6 °C 0.6 °C 1023.9 hPa NNE 6.4 km/h 16.1 km/h 62 % 0 mm 28 W/m2
07:12 7.7 °C 0.6 °C 1023.9 hPa NE 4.8 km/h 12.9 km/h 62 % 0 mm 44 W/m2
07:27 7.7 °C 0.6 °C 1023.6 hPa NNE 8 km/h 9.7 km/h 62 % 0 mm 62 W/m2
07:42 7.8 °C 1.1 °C 1023.6 hPa NNE 1.6 km/h 12.9 km/h 62 % 0 mm 72 W/m2
07:57 8 °C 1.1 °C 1023.6 hPa NNE 4.8 km/h 16.1 km/h 62 % 0 mm 83 W/m2
08:12 8.1 °C 1.1 °C 1023.6 hPa NE 8 km/h 16.1 km/h 63 % 0 mm 102 W/m2
08:27 8.3 °C 1.1 °C 1023.6 hPa NNE 6.4 km/h 14.5 km/h 62 % 0 mm 116 W/m2
08:42 8.7 °C 1.7 °C 1023.6 hPa ENE 9.7 km/h 12.9 km/h 62 % 0 mm 125 W/m2
08:57 8.8 °C 2.2 °C 1023.6 hPa NE 4.8 km/h 9.7 km/h 63 % 0 mm 130 W/m2
09:12 9.2 °C 2.2 °C 1023.6 hPa NE 9.7 km/h 17.7 km/h 63 % 0 mm 130 W/m2
09:27 9.4 °C 2.8 °C 1023.9 hPa Calm   17.7 km/h 63 % 0 mm 137 W/m2
09:42 9.8 °C 2.8 °C 1023.9 hPa ENE 6.4 km/h 14.5 km/h 63 % 0 mm 137 W/m2
09:57 10.2 °C 3.3 °C 1023.9 hPa NE 14.5 km/h 17.7 km/h 63 % 0 mm 153 W/m2
10:13 10.6 °C 3.9 °C 1023.6 hPa ESE 1.6 km/h 14.5 km/h 63 % 0 mm 165 W/m2
10:28 10.9 °C 3.9 °C 1023.9 hPa East 3.2 km/h 17.7 km/h 62 % 0 mm 197 W/m2
10:43 11.3 °C 4.4 °C 1023.9 hPa NE 1.6 km/h 16.1 km/h 63 % 0 mm 237 W/m2
10:58 11.9 °C 4.4 °C 1024.3 hPa East 3.2 km/h 9.7 km/h 60 % 0 mm 320 W/m2
11:13 12.7 °C 4.4 °C 1024.3 hPa NE 4.8 km/h 9.7 km/h 57 % 0 mm 390 W/m2
11:28 13.1 °C 4.4 °C 1023.9 hPa East 3.2 km/h 9.7 km/h 57 % 0 mm 381 W/m2
11:43 13.5 °C 5 °C 1024.3 hPa SE 4.8 km/h 9.7 km/h 56 % 0 mm 459 W/m2
11:58 14.1 °C 5 °C 1023.9 hPa East 1.6 km/h 9.7 km/h 54 % 0 mm 452 W/m2
12:13 14.2 °C 4.4 °C 1023.9 hPa ESE 3.2 km/h 11.3 km/h 52 % 0 mm 533 W/m2
12:28 14.6 °C 2.8 °C 1023.9 hPa NE 8 km/h 14.5 km/h 46 % 0 mm 592 W/m2
12:43 14.5 °C 4.4 °C 1023.9 hPa SE 6.4 km/h 16.1 km/h 51 % 0 mm 478 W/m2
12:58 14.6 °C 3.9 °C 1023.6 hPa East 4.8 km/h 14.5 km/h 50 % 0 mm 476 W/m2
13:13 14.6 °C 4.4 °C 1023.6 hPa ENE 6.4 km/h 20.9 km/h 51 % 0 mm 475 W/m2
13:28 14.8 °C 4.4 °C 1023.6 hPa East 1.6 km/h 12.9 km/h 51 % 0 mm 499 W/m2
13:43 14.8 °C 5.6 °C 1023.6 hPa SE 3.2 km/h 16.1 km/h 54 % 0 mm 508 W/m2
13:58 14.9 °C 5 °C 1023.6 hPa North 11.3 km/h 19.3 km/h 52 % 0 mm 640 W/m2
14:13 15.2 °C 5 °C 1023.6 hPa NE 3.2 km/h 22.5 km/h 51 % 0 mm 390 W/m2
14:28 14.9 °C 4.4 °C 1023.6 hPa SSE 4.8 km/h 19.3 km/h 49 % 0 mm 455 W/m2
14:43 15.1 °C 4.4 °C 1023.2 hPa East 3.2 km/h 16.1 km/h 50 % 0 mm 422 W/m2
14:58 14.6 °C 4.4 °C 1023.6 hPa NE 14.5 km/h 24.1 km/h 52 % 0 mm 336 W/m2
15:13 14.4 °C 4.4 °C 1023.6 hPa ENE 9.7 km/h 17.7 km/h 51 % 0 mm 322 W/m2
15:28 14.7 °C 3.9 °C 1023.6 hPa NE 6.4 km/h 17.7 km/h 48 % 0 mm 415 W/m2
15:43 14.5 °C 3.9 °C 1023.6 hPa East 3.2 km/h 20.9 km/h 49 % 0 mm 606 W/m2
15:58 14.9 °C 3.9 °C 1023.2 hPa ENE 3.2 km/h 16.1 km/h 49 % 0 mm 459 W/m2
16:13 15.1 °C 4.4 °C 1022.9 hPa East 6.4 km/h 20.9 km/h 50 % 0 mm 538 W/m2
16:28 15.2 °C 5 °C 1022.2 hPa NE 9.7 km/h 24.1 km/h 50 % 0 mm 831 W/m2
16:43 15.2 °C 3.3 °C 1022.6 hPa North 6.4 km/h 22.5 km/h 45 % 0 mm 763 W/m2
16:58 15.4 °C 3.3 °C 1022.2 hPa NNE 12.9 km/h 22.5 km/h 44 % 0 mm 364 W/m2
17:13 15.1 °C 2.8 °C 1022.2 hPa NNE 9.7 km/h 24.1 km/h 44 % 0 mm 338 W/m2
17:28 14.8 °C 2.8 °C 1022.2 hPa NNE 12.9 km/h 27.4 km/h 45 % 0 mm 346 W/m2
17:43 14.7 °C 3.3 °C 1022.6 hPa ENE 8 km/h 25.7 km/h 47 % 0 mm 253 W/m2
17:59 14.6 °C 2.2 °C 1022.2 hPa SE 11.3 km/h 20.9 km/h 44 % 0 mm 262 W/m2
18:13 14.3 °C 1.1 °C 1022.2 hPa NE 14.5 km/h 24.1 km/h 41 % 0 mm 148 W/m2
18:28 13.9 °C 0 °C 1022.6 hPa NE 22.5 km/h 22.5 km/h 39 % 0 mm 84 W/m2
18:44 13.7 °C 0.6 °C 1022.9 hPa NE 11.3 km/h 22.5 km/h 41 % 0 mm 77 W/m2
18:58 13.4 °C 0 °C 1022.6 hPa ENE 4.8 km/h 25.7 km/h 40 % 0 mm 60 W/m2
19:14 13.2 °C 0 °C 1022.2 hPa ENE 19.3 km/h 24.1 km/h 40 % 0 mm 83 W/m2
19:29 13.2 °C 0.6 °C 1022.2 hPa East 12.9 km/h 24.1 km/h 42 % 0 mm 79 W/m2
19:44 13.1 °C 1.1 °C 1022.2 hPa NE 8 km/h 19.3 km/h 45 % 0 mm 72 W/m2
19:59 12.7 °C 0.6 °C 1022.2 hPa East 9.7 km/h 19.3 km/h 44 % 0 mm 62 W/m2
20:14 12.5 °C 0 °C 1022.6 hPa NE 3.2 km/h 20.9 km/h 43 % 0 mm 46 W/m2
20:29 12.3 °C 0.6 °C 1022.6 hPa NE 9.7 km/h 20.9 km/h 44 % 0 mm 32 W/m2
20:44 12.1 °C 0.6 °C 1022.6 hPa ENE 4.8 km/h 20.9 km/h 45 % 0 mm 12 W/m2
20:59 11.8 °C 0 °C 1022.6 hPa NE 6.4 km/h 19.3 km/h 44 % 0 mm 0 W/m2
21:14 11.7 °C -0.6 °C 1022.6 hPa Calm   11.3 km/h 44 % 0 mm 0 W/m2
21:29 11.5 °C 0 °C 1022.9 hPa Calm   8 km/h 46 % 0 mm 0 W/m2
21:44 11.3 °C 0.6 °C 1023.2 hPa East 1.6 km/h 6.4 km/h 48 % 0 mm 0 W/m2
21:59 11.2 °C 1.1 °C 1023.2 hPa East 1.6 km/h 9.7 km/h 50 % 0 mm 0 W/m2
22:14 11.2 °C 1.1 °C 1022.9 hPa East 4.8 km/h 17.7 km/h 50 % 0 mm 0 W/m2
22:44 10.9 °C 0 °C 1022.9 hPa East 1.6 km/h 11.3 km/h 47 % 0 mm 0 W/m2
22:59 10.8 °C 0 °C 1022.9 hPa Calm   9.7 km/h 48 % 0 mm 0 W/m2
23:14 10.6 °C 0 °C 1022.9 hPa ESE 1.6 km/h 4.8 km/h 49 % 0 mm 0 W/m2
23:29 10.6 °C 0.6 °C 1022.9 hPa ESE 1.6 km/h 6.4 km/h 50 % 0 mm 0 W/m2
23:44 10.4 °C 0.6 °C 1022.9 hPa Calm   3.2 km/h 51 % 0 mm 0 W/m2
23:59 10.4 °C 0.6 °C 1022.6 hPa ESE 3.2 km/h 4.8 km/h 51 % 0 mm 0 W/m2
Compliments of Weather Underground - 1 mb